createdAt,value
2018-03-24T00:00:22.692Z,0.00
2018-03-24T00:02:15.951Z,0.00
2018-03-24T00:03:15.885Z,0.00
2018-03-24T00:05:09.171Z,0.00
2018-03-24T00:06:09.086Z,0.00
2018-03-24T00:08:02.341Z,0.00
2018-03-24T00:09:02.270Z,0.00
2018-03-24T00:10:55.541Z,0.00
2018-03-24T00:11:55.472Z,0.00
2018-03-24T00:13:48.671Z,0.00
2018-03-24T00:14:48.630Z,0.00
2018-03-24T00:16:41.887Z,0.00
2018-03-24T00:17:41.795Z,0.00
2018-03-24T00:19:35.116Z,0.00
2018-03-24T00:20:34.976Z,0.00
2018-03-24T00:22:28.246Z,0.00
2018-03-24T00:23:28.177Z,0.00
2018-03-24T00:25:21.413Z,0.00
2018-03-24T00:26:21.357Z,0.00
2018-03-24T00:28:14.618Z,0.00
2018-03-24T00:29:14.534Z,0.00
2018-03-24T00:31:07.772Z,0.00
2018-03-24T00:32:07.712Z,0.00
2018-03-24T00:34:00.991Z,0.00
2018-03-24T00:35:00.885Z,0.00
2018-03-24T00:36:54.127Z,0.00
2018-03-24T00:37:54.065Z,0.00
2018-03-24T00:39:47.346Z,0.00
2018-03-24T00:40:47.272Z,0.00
2018-03-24T00:42:40.509Z,0.00
2018-03-24T00:43:40.447Z,0.00
2018-03-24T00:45:33.722Z,0.00
2018-03-24T00:46:33.616Z,0.00
2018-03-24T00:48:26.865Z,0.00
2018-03-24T00:49:26.809Z,0.00
2018-03-24T00:51:20.075Z,0.00
2018-03-24T00:52:19.976Z,0.00
2018-03-24T00:54:13.228Z,0.00
2018-03-24T00:55:13.152Z,0.00
2018-03-24T00:57:06.440Z,0.00
2018-03-24T00:58:06.332Z,0.00
2018-03-24T00:59:59.601Z,0.00
2018-03-24T01:00:59.507Z,0.00
2018-03-24T01:02:52.814Z,0.00
2018-03-24T01:03:52.683Z,0.00
2018-03-24T01:05:45.935Z,0.00
2018-03-24T01:06:45.883Z,0.00
2018-03-24T01:08:39.156Z,0.00
2018-03-24T01:09:39.044Z,0.00
2018-03-24T01:11:32.302Z,0.00
2018-03-24T01:12:32.237Z,0.00
2018-03-24T01:14:25.523Z,0.00
2018-03-24T01:15:25.422Z,0.00
2018-03-24T01:17:18.677Z,0.00
2018-03-24T01:18:18.607Z,0.00
2018-03-24T01:20:11.879Z,0.00
2018-03-24T01:21:11.785Z,0.00
2018-03-24T01:23:05.033Z,0.00
2018-03-24T01:24:04.961Z,0.00
2018-03-24T01:25:58.233Z,0.00
2018-03-24T01:26:58.135Z,0.00
2018-03-24T01:28:51.391Z,0.00
2018-03-24T01:29:51.320Z,0.00
2018-03-24T01:31:44.618Z,0.00
2018-03-24T01:32:44.499Z,0.00
2018-03-24T01:34:37.748Z,0.00
2018-03-24T01:35:37.687Z,0.00
2018-03-24T01:37:30.956Z,0.00
2018-03-24T01:38:30.856Z,0.00
2018-03-24T01:40:24.111Z,0.00
2018-03-24T01:41:24.035Z,0.00
2018-03-24T01:43:17.343Z,0.00
2018-03-24T01:44:17.212Z,0.00
2018-03-24T01:46:10.462Z,0.00
2018-03-24T01:47:10.385Z,0.00
2018-03-24T01:49:03.664Z,0.00
2018-03-24T01:50:03.565Z,0.00
2018-03-24T01:51:56.813Z,0.00
2018-03-24T01:52:56.744Z,0.00
2018-03-24T01:54:50.021Z,0.00
2018-03-24T01:55:49.920Z,0.00
2018-03-24T01:57:43.166Z,0.00
2018-03-24T01:58:43.099Z,0.00
2018-03-24T02:00:36.374Z,0.00
2018-03-24T02:01:36.273Z,0.00
2018-03-24T02:03:29.519Z,0.00
2018-03-24T02:04:29.460Z,0.00
2018-03-24T02:06:23.360Z,0.00
2018-03-24T02:07:22.626Z,0.00
2018-03-24T02:09:15.871Z,0.00
2018-03-24T02:10:15.803Z,0.00
2018-03-24T02:12:09.079Z,0.00
2018-03-24T02:13:08.986Z,0.00
2018-03-24T02:15:02.232Z,0.00
2018-03-24T02:16:02.173Z,0.00
2018-03-24T02:17:55.433Z,0.00
2018-03-24T02:18:55.347Z,0.00
2018-03-24T02:20:48.580Z,0.00
2018-03-24T02:21:48.509Z,0.00
2018-03-24T02:23:41.786Z,0.00
2018-03-24T02:24:41.685Z,0.00
2018-03-24T02:26:34.942Z,0.00
2018-03-24T02:27:34.879Z,0.00
2018-03-24T02:29:28.142Z,0.00
2018-03-24T02:30:28.048Z,0.00
2018-03-24T02:32:21.285Z,0.00
2018-03-24T02:33:21.216Z,0.00
2018-03-24T02:35:14.494Z,0.00
2018-03-24T02:36:14.396Z,0.00
2018-03-24T02:38:07.639Z,0.00
2018-03-24T02:39:07.573Z,0.00
2018-03-24T02:41:00.845Z,0.00
2018-03-24T02:42:00.748Z,0.00
2018-03-24T02:43:53.996Z,0.00
2018-03-24T02:44:53.926Z,0.00
2018-03-24T02:46:47.212Z,0.00
2018-03-24T02:47:47.111Z,0.00
2018-03-24T02:49:40.358Z,0.00
2018-03-24T02:50:40.289Z,0.00
2018-03-24T02:52:33.564Z,0.00
2018-03-24T02:53:33.465Z,0.00
2018-03-24T02:55:26.709Z,0.00
2018-03-24T02:56:26.639Z,0.00
2018-03-24T02:58:19.916Z,0.00
2018-03-24T02:59:19.816Z,0.00
2018-03-24T03:01:13.062Z,0.00
2018-03-24T03:02:12.993Z,0.00
2018-03-24T03:04:06.269Z,0.00
2018-03-24T03:05:06.168Z,0.00
2018-03-24T03:06:59.411Z,0.00
2018-03-24T03:07:59.341Z,0.00
2018-03-24T03:09:52.616Z,0.00
2018-03-24T03:10:52.517Z,0.00
2018-03-24T03:12:45.772Z,0.00
2018-03-24T03:13:45.719Z,0.00
2018-03-24T03:15:38.978Z,0.00
2018-03-24T03:16:38.879Z,0.00
2018-03-24T03:18:32.125Z,0.00
2018-03-24T03:19:32.056Z,0.00
2018-03-24T03:21:25.330Z,0.00
2018-03-24T03:22:25.230Z,0.00
2018-03-24T03:24:18.477Z,0.00
2018-03-24T03:25:18.404Z,0.00
2018-03-24T03:27:11.678Z,0.00
2018-03-24T03:28:11.578Z,0.00
2018-03-24T03:30:04.829Z,0.00
2018-03-24T03:31:04.754Z,0.00
2018-03-24T03:32:58.030Z,0.00
2018-03-24T03:33:57.928Z,0.00
2018-03-24T03:35:51.170Z,0.00
2018-03-24T03:36:51.103Z,0.00
2018-03-24T03:38:44.391Z,0.00
2018-03-24T03:39:44.287Z,0.00
2018-03-24T03:41:37.535Z,0.00
2018-03-24T03:42:37.466Z,0.00
2018-03-24T03:44:30.740Z,0.00
2018-03-24T03:45:30.642Z,0.00
2018-03-24T03:47:23.887Z,0.00
2018-03-24T03:48:23.814Z,0.00
2018-03-24T03:50:17.090Z,0.00
2018-03-24T03:51:16.990Z,0.00
2018-03-24T03:53:10.239Z,0.00
2018-03-24T03:54:10.167Z,0.00
2018-03-24T03:56:03.442Z,0.00
2018-03-24T03:57:03.342Z,0.00
2018-03-24T03:58:56.590Z,0.00
2018-03-24T03:59:56.520Z,0.00
2018-03-24T04:01:49.794Z,0.00
2018-03-24T04:02:49.695Z,0.00
2018-03-24T04:04:42.944Z,0.00
2018-03-24T04:05:42.870Z,0.00
2018-03-24T04:07:36.142Z,0.00
2018-03-24T04:08:36.044Z,0.00
2018-03-24T04:10:29.292Z,0.00
2018-03-24T04:11:29.219Z,0.00
2018-03-24T04:13:22.498Z,0.00
2018-03-24T04:14:22.396Z,0.00
2018-03-24T04:16:15.641Z,0.00
2018-03-24T04:17:15.570Z,0.00
2018-03-24T04:19:08.845Z,0.00
2018-03-24T04:20:08.744Z,0.00
2018-03-24T04:22:01.991Z,0.00
2018-03-24T04:23:01.926Z,0.00
2018-03-24T04:24:55.195Z,0.00
2018-03-24T04:25:55.096Z,0.00
2018-03-24T04:27:48.342Z,0.00
2018-03-24T04:28:48.272Z,0.00
2018-03-24T04:30:41.544Z,0.00
2018-03-24T04:31:41.445Z,0.00
2018-03-24T04:33:34.707Z,0.00
2018-03-24T04:34:34.706Z,0.00
2018-03-24T04:36:27.918Z,0.00
2018-03-24T04:37:27.805Z,0.00
2018-03-24T04:39:21.049Z,0.00
2018-03-24T04:40:20.979Z,0.00
2018-03-24T04:42:14.262Z,0.00
2018-03-24T04:43:14.155Z,0.00
2018-03-24T04:45:07.400Z,0.00
2018-03-24T04:46:07.337Z,4.00
2018-03-24T04:48:00.608Z,0.00
2018-03-24T04:49:00.508Z,4.00
2018-03-24T04:50:53.755Z,4.00
2018-03-24T04:51:53.684Z,4.00
2018-03-24T04:53:46.964Z,8.00
2018-03-24T04:54:46.858Z,8.00
2018-03-24T04:56:40.104Z,16.00
2018-03-24T04:57:40.034Z,20.00
2018-03-24T04:59:33.315Z,28.00
2018-03-24T05:00:33.214Z,32.00
2018-03-24T05:02:26.457Z,48.00
2018-03-24T05:03:26.387Z,56.00
2018-03-24T05:05:19.672Z,76.00
2018-03-24T05:06:19.563Z,88.00
2018-03-24T05:08:12.808Z,116.00
2018-03-24T05:09:12.737Z,136.00
2018-03-24T05:11:06.022Z,172.00
2018-03-24T05:12:05.912Z,196.00
2018-03-24T05:13:59.158Z,244.00
2018-03-24T05:14:59.087Z,272.00
2018-03-24T05:16:52.363Z,336.00
2018-03-24T05:17:52.261Z,372.00
2018-03-24T05:19:45.506Z,440.00
2018-03-24T05:20:45.435Z,484.00
2018-03-24T05:22:38.708Z,568.00
2018-03-24T05:23:38.609Z,616.00
2018-03-24T05:25:31.862Z,708.00
2018-03-24T05:26:31.786Z,764.00
2018-03-24T05:28:25.068Z,868.00
2018-03-24T05:29:24.960Z,928.00
2018-03-24T05:31:18.212Z,1044.00
2018-03-24T05:32:18.133Z,1108.00
2018-03-24T05:34:11.410Z,1240.00
2018-03-24T05:35:11.309Z,1308.00
2018-03-24T05:37:04.559Z,1452.00
2018-03-24T05:38:04.485Z,1532.00
2018-03-24T05:39:57.768Z,1676.00
2018-03-24T05:40:57.662Z,1760.00
2018-03-24T05:42:50.917Z,1912.00
2018-03-24T05:43:50.853Z,2000.00
2018-03-24T05:45:44.129Z,2168.00
2018-03-24T05:46:44.018Z,2252.00
2018-03-24T05:48:37.293Z,2424.00
2018-03-24T05:49:37.194Z,2520.00
2018-03-24T05:51:30.471Z,2696.00
2018-03-24T05:52:30.374Z,2788.00
2018-03-24T05:54:23.615Z,2972.00
2018-03-24T05:55:23.547Z,3072.00
2018-03-24T05:57:16.821Z,3276.00
2018-03-24T05:58:16.721Z,3376.00
2018-03-24T06:00:09.976Z,3560.00
2018-03-24T06:01:09.897Z,3664.00
2018-03-24T06:03:03.174Z,3860.00
2018-03-24T06:04:03.096Z,3956.00
2018-03-24T06:05:56.318Z,4148.00
2018-03-24T06:06:56.251Z,4260.00
2018-03-24T06:08:49.538Z,4460.00
2018-03-24T06:09:49.428Z,4544.00
2018-03-24T06:11:42.679Z,4720.00
2018-03-24T06:12:42.615Z,4796.00
2018-03-24T06:14:35.911Z,4996.00
2018-03-24T06:15:35.785Z,5116.00
2018-03-24T06:17:29.046Z,5240.00
2018-03-24T06:18:28.965Z,5340.00
2018-03-24T06:20:22.255Z,5548.00
2018-03-24T06:21:22.143Z,5624.00
2018-03-24T06:23:15.398Z,5756.00
2018-03-24T06:24:15.322Z,5864.00
2018-03-24T06:26:08.601Z,6008.00
2018-03-24T06:27:08.499Z,6100.00
2018-03-24T06:29:01.749Z,6192.00
2018-03-24T06:30:01.679Z,6268.00
2018-03-24T06:31:54.971Z,6460.00
2018-03-24T06:32:54.856Z,6536.00
2018-03-24T06:34:48.104Z,7220.00
2018-03-24T06:35:48.036Z,7704.00
2018-03-24T06:37:41.321Z,15020.00
2018-03-24T06:38:41.220Z,23136.00
2018-03-24T06:40:34.467Z,12800.00
2018-03-24T06:41:34.401Z,13432.00
2018-03-24T06:43:27.677Z,25344.00
2018-03-24T06:44:27.600Z,27424.00
2018-03-24T06:46:20.839Z,27936.00
2018-03-24T06:47:20.762Z,29184.00
2018-03-24T06:49:14.045Z,28544.00
2018-03-24T06:50:13.949Z,29728.00
2018-03-24T06:52:07.226Z,30688.00
2018-03-24T06:53:07.141Z,30720.00
2018-03-24T06:55:00.435Z,30560.00
2018-03-24T06:56:00.328Z,31584.00
2018-03-24T06:57:53.584Z,33728.00
2018-03-24T06:58:53.521Z,33056.00
2018-03-24T07:00:46.812Z,32000.00
2018-03-24T07:01:46.714Z,33696.00
2018-03-24T07:03:39.993Z,37376.00
2018-03-24T07:04:39.924Z,33280.00
2018-03-24T07:06:33.203Z,36256.00
2018-03-24T07:07:33.108Z,41248.00
2018-03-24T07:09:26.366Z,43488.00
2018-03-24T07:10:26.320Z,39424.00
2018-03-24T07:12:19.597Z,45280.00
2018-03-24T07:13:19.515Z,47296.00
2018-03-24T07:15:12.810Z,38816.00
2018-03-24T07:16:12.768Z,34688.00
2018-03-24T07:18:06.009Z,25728.00
2018-03-24T07:19:05.931Z,27328.00
2018-03-24T07:20:59.210Z,46656.00
2018-03-24T07:21:59.140Z,47328.00
2018-03-24T07:23:52.516Z,41664.00
2018-03-24T07:24:52.337Z,38432.00
2018-03-24T07:26:45.633Z,48640.00
2018-03-24T07:27:45.555Z,51456.00
2018-03-24T07:29:52.999Z,55840.00
2018-03-24T07:30:52.911Z,52832.00
2018-03-24T07:32:46.185Z,57216.00
2018-03-24T07:33:46.130Z,61728.00
2018-03-24T07:35:39.433Z,60064.00
2018-03-24T07:36:39.353Z,54016.00
2018-03-24T07:38:32.638Z,57280.00
2018-03-24T07:39:32.561Z,59232.00
2018-03-24T07:41:25.842Z,60960.00
2018-03-24T07:42:25.753Z,60032.00
2018-03-24T07:44:19.139Z,55648.00
2018-03-24T07:45:19.217Z,55488.00
2018-03-24T07:47:13.338Z,50848.00
2018-03-24T07:49:53.020Z,62592.00
2018-03-24T07:50:52.968Z,64672.00
2018-03-24T07:52:46.258Z,70496.00
2018-03-24T07:53:46.178Z,65408.00
2018-03-24T07:55:39.453Z,62368.00
2018-03-24T07:56:39.395Z,59072.00
2018-03-24T07:58:32.692Z,54912.00
2018-03-24T07:59:32.604Z,51232.00
2018-03-24T08:01:25.907Z,48064.00
2018-03-24T08:02:25.868Z,46368.00
2018-03-24T08:04:38.330Z,47072.00
2018-03-24T08:05:37.861Z,51328.00
2018-03-24T08:07:30.999Z,51488.00
2018-03-24T08:08:30.917Z,49472.00
2018-03-24T08:10:49.684Z,59200.00
2018-03-24T08:11:49.628Z,68800.00
2018-03-24T08:13:42.841Z,70208.00
2018-03-24T08:14:42.936Z,68704.00
2018-03-24T08:16:36.164Z,67648.00
2018-03-24T08:17:39.322Z,69632.00
2018-03-24T08:19:29.366Z,72000.00
2018-03-24T08:20:29.285Z,71232.00
2018-03-24T08:22:22.608Z,69888.00
2018-03-24T08:23:22.751Z,69824.00
2018-03-24T08:25:17.534Z,65760.00
2018-03-24T08:26:17.777Z,70208.00
2018-03-24T08:28:10.933Z,74752.00
2018-03-24T08:30:37.631Z,70016.00
2018-03-24T08:31:37.548Z,70368.00
2018-03-24T08:33:32.716Z,71168.00
2018-03-24T08:34:32.739Z,73568.00
2018-03-24T08:36:25.914Z,70112.00
2018-03-24T08:37:25.872Z,71168.00
2018-03-24T08:39:18.780Z,73792.00
2018-03-24T08:40:18.714Z,75488.00
2018-03-24T08:42:11.500Z,74880.00
2018-03-24T08:43:11.474Z,75168.00
2018-03-24T08:45:04.825Z,75296.00
2018-03-24T08:46:04.685Z,73536.00
2018-03-24T08:48:11.552Z,72000.00
2018-03-24T08:49:11.492Z,73280.00
2018-03-24T08:51:06.050Z,78784.00
2018-03-24T08:53:18.294Z,83680.00
2018-03-24T08:54:18.342Z,82464.00
2018-03-24T08:56:14.868Z,80224.00
2018-03-24T08:57:12.514Z,79808.00
2018-03-24T08:59:06.925Z,81024.00
2018-03-24T09:00:06.923Z,76736.00
2018-03-24T09:02:12.511Z,84896.00
2018-03-24T09:03:12.371Z,85376.00
2018-03-24T09:05:05.966Z,82592.00
2018-03-24T09:06:07.423Z,82304.00
2018-03-24T09:07:58.529Z,87072.00
2018-03-24T09:08:58.486Z,86432.00
2018-03-24T09:10:51.742Z,85088.00
2018-03-24T09:11:51.761Z,87680.00
2018-03-24T09:13:44.609Z,92864.00
2018-03-24T09:14:44.546Z,90944.00
2018-03-24T09:16:37.810Z,83712.00
2018-03-24T09:17:37.786Z,82912.00
2018-03-24T09:19:31.229Z,84288.00
2018-03-24T09:20:31.119Z,54976.00
2018-03-24T09:22:24.509Z,80384.00
2018-03-24T09:23:24.408Z,84448.00
2018-03-24T09:25:17.696Z,75712.00
2018-03-24T09:26:17.598Z,85440.00
2018-03-24T09:28:10.978Z,31360.00
2018-03-24T09:29:10.886Z,82016.00
2018-03-24T09:31:05.129Z,78656.00
2018-03-24T09:32:04.947Z,83904.00
2018-03-24T09:33:58.244Z,86176.00
2018-03-24T09:34:58.231Z,84224.00
2018-03-24T09:36:52.088Z,96128.00
2018-03-24T09:37:52.006Z,94592.00
2018-03-24T09:39:45.304Z,43680.00
2018-03-24T09:40:45.249Z,93696.00
2018-03-24T09:42:38.589Z,63424.00
2018-03-24T09:43:38.497Z,90336.00
2018-03-24T09:45:31.282Z,93728.00
2018-03-24T09:46:31.239Z,96000.00
2018-03-24T09:48:24.062Z,99072.00
2018-03-24T09:49:23.986Z,99424.00
2018-03-24T09:51:17.262Z,90656.00
2018-03-24T09:52:17.210Z,91744.00
2018-03-24T09:54:10.543Z,86176.00
2018-03-24T09:55:10.466Z,88544.00
2018-03-24T09:57:03.273Z,91744.00
2018-03-24T09:58:03.221Z,48928.00
2018-03-24T09:59:56.082Z,94400.00
2018-03-24T10:00:55.966Z,97696.00
2018-03-24T10:02:48.767Z,71552.00
2018-03-24T10:03:48.718Z,92704.00
2018-03-24T10:05:42.025Z,96928.00
2018-03-24T10:06:41.951Z,88608.00
2018-03-24T10:08:34.745Z,34784.00
2018-03-24T10:09:34.693Z,70688.00
2018-03-24T10:11:28.018Z,42656.00
2018-03-24T10:12:27.944Z,70144.00
2018-03-24T10:14:21.228Z,93536.00
2018-03-24T10:15:21.170Z,84800.00
2018-03-24T10:17:14.484Z,98016.00
2018-03-24T10:18:14.404Z,96096.00
2018-03-24T10:20:07.688Z,74368.00
2018-03-24T10:21:07.655Z,96992.00
2018-03-24T10:23:00.949Z,94272.00
2018-03-24T10:24:00.871Z,93504.00
2018-03-24T10:25:53.665Z,101120.00
2018-03-24T10:26:53.606Z,98944.00
2018-03-24T10:28:46.431Z,98176.00
2018-03-24T10:29:46.349Z,97824.00
2018-03-24T10:31:39.637Z,75008.00
2018-03-24T10:32:39.586Z,107712.00
2018-03-24T10:34:32.528Z,34496.00
2018-03-24T10:35:32.324Z,110720.00
2018-03-24T10:37:25.608Z,108160.00
2018-03-24T10:38:25.557Z,105024.00
2018-03-24T10:40:18.885Z,102400.00
2018-03-24T10:41:18.794Z,101376.00
2018-03-24T10:43:15.842Z,99712.00
2018-03-24T10:44:15.798Z,99872.00
2018-03-24T10:46:08.616Z,100416.00
2018-03-24T10:47:08.540Z,100896.00
2018-03-24T10:49:01.825Z,98336.00
2018-03-24T10:50:01.776Z,80096.00
2018-03-24T10:51:55.088Z,98752.00
2018-03-24T10:52:55.025Z,101408.00
2018-03-24T10:54:48.337Z,103744.00
2018-03-24T10:55:48.249Z,103808.00
2018-03-24T10:57:41.562Z,40224.00
2018-03-24T10:58:41.511Z,72608.00
2018-03-24T11:00:34.279Z,94592.00
2018-03-24T11:01:34.232Z,100512.00
2018-03-24T11:03:27.052Z,97248.00
2018-03-24T11:04:26.974Z,99936.00
2018-03-24T11:06:19.764Z,98240.00
2018-03-24T11:07:19.712Z,100640.00
2018-03-24T11:09:12.539Z,97920.00
2018-03-24T11:10:12.454Z,96288.00
2018-03-24T11:12:05.246Z,95488.00
2018-03-24T11:13:05.196Z,42848.00
2018-03-24T11:14:58.017Z,94496.00
2018-03-24T11:15:57.937Z,96384.00
2018-03-24T11:17:50.729Z,93600.00
2018-03-24T11:18:50.676Z,92128.00
2018-03-24T11:20:43.996Z,94080.00
2018-03-24T11:21:43.915Z,95456.00
2018-03-24T11:23:36.709Z,68192.00
2018-03-24T11:24:36.659Z,91936.00
2018-03-24T11:26:29.536Z,96832.00
2018-03-24T11:27:29.400Z,95360.00
2018-03-24T11:29:22.191Z,96096.00
2018-03-24T11:30:22.141Z,83680.00
2018-03-24T11:32:14.966Z,94592.00
2018-03-24T11:33:14.885Z,89024.00
2018-03-24T11:35:08.173Z,93792.00
2018-03-24T11:36:08.127Z,93376.00
2018-03-24T11:38:01.444Z,96384.00
2018-03-24T11:39:01.372Z,98144.00
2018-03-24T11:40:54.164Z,89440.00
2018-03-24T11:41:54.117Z,89792.00
2018-03-24T11:43:46.936Z,94784.00
2018-03-24T11:44:46.857Z,94528.00
2018-03-24T11:46:40.143Z,95840.00
2018-03-24T11:47:40.094Z,96320.00
2018-03-24T11:49:33.412Z,93728.00
2018-03-24T11:50:33.335Z,91168.00
2018-03-24T11:52:26.620Z,90176.00
2018-03-24T11:53:26.571Z,91296.00
2018-03-24T11:55:19.391Z,89664.00
2018-03-24T11:56:19.316Z,88992.00
2018-03-24T11:58:12.108Z,93088.00
2018-03-24T11:59:12.058Z,92192.00
2018-03-24T12:01:05.375Z,86240.00
2018-03-24T12:02:05.294Z,76960.00
2018-03-24T12:03:58.083Z,82304.00
2018-03-24T12:04:58.035Z,85728.00
2018-03-24T12:06:51.474Z,89408.00
2018-03-24T12:07:51.274Z,89472.00
2018-03-24T12:09:44.554Z,88096.00
2018-03-24T12:10:44.507Z,88800.00
2018-03-24T12:12:37.818Z,88320.00
2018-03-24T12:13:37.738Z,85856.00
2018-03-24T12:15:31.020Z,86688.00
2018-03-24T12:16:30.972Z,88768.00
2018-03-24T12:18:24.292Z,89248.00
2018-03-24T12:19:24.207Z,89472.00
2018-03-24T12:21:16.998Z,93216.00
2018-03-24T12:22:16.947Z,92160.00
2018-03-24T12:24:10.261Z,85856.00
2018-03-24T12:25:10.183Z,83520.00
2018-03-24T12:27:03.470Z,83360.00
2018-03-24T12:28:03.424Z,84736.00
2018-03-24T12:29:56.731Z,84160.00
2018-03-24T12:30:56.650Z,85408.00
2018-03-24T12:32:49.935Z,88000.00
2018-03-24T12:33:49.882Z,88224.00
2018-03-24T12:35:43.196Z,85888.00
2018-03-24T12:36:43.117Z,85408.00
2018-03-24T12:38:36.397Z,83520.00
2018-03-24T12:39:36.347Z,81440.00
2018-03-24T12:41:29.163Z,80704.00
2018-03-24T12:42:29.086Z,82400.00
2018-03-24T12:44:22.366Z,82976.00
2018-03-24T12:45:22.317Z,82464.00
2018-03-24T12:47:15.633Z,82944.00
2018-03-24T12:48:15.549Z,83040.00
2018-03-24T12:50:08.833Z,83712.00
2018-03-24T12:51:08.784Z,83584.00
2018-03-24T12:53:02.104Z,76992.00
2018-03-24T12:54:02.023Z,75520.00
2018-03-24T12:55:54.811Z,77824.00
2018-03-24T12:56:54.761Z,76544.00
2018-03-24T12:58:48.075Z,73216.00
2018-03-24T12:59:47.993Z,73664.00
2018-03-24T13:01:40.778Z,76384.00
2018-03-24T13:02:40.725Z,74784.00
2018-03-24T13:04:34.039Z,70720.00
2018-03-24T13:05:33.956Z,70848.00
2018-03-24T13:07:27.238Z,70176.00
2018-03-24T13:08:27.183Z,68160.00
2018-03-24T13:10:20.495Z,68544.00
2018-03-24T13:11:20.411Z,68384.00
2018-03-24T13:13:13.203Z,67264.00
2018-03-24T13:14:13.156Z,67296.00
2018-03-24T13:16:06.458Z,69120.00
2018-03-24T13:17:06.375Z,69664.00
2018-03-24T13:18:59.657Z,67040.00
2018-03-24T13:19:59.608Z,66048.00
2018-03-24T13:21:52.419Z,64032.00
2018-03-24T13:22:52.342Z,62528.00
2018-03-24T13:24:45.120Z,62592.00
2018-03-24T13:25:45.068Z,62240.00
2018-03-24T13:27:38.418Z,61760.00
2018-03-24T13:28:38.301Z,61888.00
2018-03-24T13:30:31.576Z,60640.00
2018-03-24T13:31:31.525Z,48896.00
2018-03-24T13:33:24.835Z,59104.00
2018-03-24T13:34:24.752Z,58208.00
2018-03-24T13:36:18.034Z,60352.00
2018-03-24T13:37:17.981Z,60672.00
2018-03-24T13:39:11.291Z,59904.00
2018-03-24T13:40:11.217Z,59680.00
2018-03-24T13:42:04.497Z,57600.00
2018-03-24T13:43:04.440Z,56864.00
2018-03-24T13:44:57.756Z,57184.00
2018-03-24T13:45:57.670Z,55968.00
2018-03-24T13:47:50.948Z,57184.00
2018-03-24T13:48:50.899Z,57824.00
2018-03-24T13:50:44.215Z,56800.00
2018-03-24T13:51:44.127Z,57344.00
2018-03-24T13:53:36.915Z,53632.00
2018-03-24T13:54:36.861Z,52768.00
2018-03-24T13:56:29.673Z,53312.00
2018-03-24T13:57:29.585Z,55552.00
2018-03-24T13:59:22.863Z,55360.00
2018-03-24T14:00:22.811Z,55040.00
2018-03-24T14:02:15.621Z,54688.00
2018-03-24T14:03:15.537Z,52832.00
2018-03-24T14:05:08.814Z,49984.00
2018-03-24T14:06:08.763Z,50304.00
2018-03-24T14:08:01.602Z,48224.00
2018-03-24T14:09:01.520Z,49472.00
2018-03-24T14:10:54.797Z,44960.00
2018-03-24T14:11:54.744Z,41984.00
2018-03-24T14:13:47.552Z,38432.00
2018-03-24T14:14:47.465Z,30560.00
2018-03-24T14:16:40.743Z,17624.00
2018-03-24T14:17:40.687Z,16680.00
2018-03-24T14:19:33.990Z,16584.00
2018-03-24T14:20:33.904Z,16564.00
2018-03-24T14:22:26.682Z,16492.00
2018-03-24T14:23:26.653Z,16388.00
2018-03-24T14:25:19.926Z,16328.00
2018-03-24T14:26:19.840Z,16260.00
2018-03-24T14:28:13.111Z,15984.00
2018-03-24T14:29:13.054Z,15868.00
2018-03-24T14:31:06.356Z,16020.00
2018-03-24T14:32:06.263Z,15900.00
2018-03-24T14:33:59.535Z,15892.00
2018-03-24T14:34:59.476Z,15948.00
2018-03-24T14:36:52.783Z,15780.00
2018-03-24T14:37:52.705Z,15696.00
2018-03-24T14:39:45.961Z,15480.00
2018-03-24T14:40:45.901Z,15380.00
2018-03-24T14:42:39.204Z,15248.00
2018-03-24T14:43:39.108Z,15224.00
2018-03-24T14:45:32.377Z,14900.00
2018-03-24T14:46:32.318Z,14772.00
2018-03-24T14:48:25.621Z,14756.00
2018-03-24T14:49:25.530Z,14772.00
2018-03-24T14:51:18.786Z,14416.00
2018-03-24T14:52:18.728Z,14456.00
2018-03-24T14:54:12.042Z,14188.00
2018-03-24T14:55:11.933Z,13908.00
2018-03-24T14:57:05.195Z,13832.00
2018-03-24T14:58:05.136Z,13716.00
2018-03-24T14:59:58.429Z,13572.00
2018-03-24T15:00:58.338Z,13300.00
2018-03-24T15:02:51.615Z,10732.00
2018-03-24T15:03:51.547Z,10712.00
2018-03-24T15:05:44.841Z,11668.00
2018-03-24T15:06:44.768Z,11028.00
2018-03-24T15:08:38.010Z,11960.00
2018-03-24T15:09:37.951Z,13472.00
2018-03-24T15:11:31.242Z,13804.00
2018-03-24T15:12:31.197Z,13496.00
2018-03-24T15:14:24.417Z,13132.00
2018-03-24T15:15:24.351Z,12916.00
2018-03-24T15:17:17.646Z,12344.00
2018-03-24T15:18:17.618Z,12136.00
2018-03-24T15:20:10.821Z,11864.00
2018-03-24T15:21:10.756Z,11740.00
2018-03-24T15:23:04.051Z,11536.00
2018-03-24T15:24:03.958Z,11484.00
2018-03-24T15:25:57.228Z,11332.00
2018-03-24T15:26:57.161Z,11348.00
2018-03-24T15:28:50.460Z,11092.00
2018-03-24T15:29:50.362Z,10924.00
2018-03-24T15:31:43.627Z,10008.00
2018-03-24T15:32:43.563Z,9644.00
2018-03-24T15:34:36.856Z,10244.00
2018-03-24T15:35:36.768Z,10016.00
2018-03-24T15:37:30.028Z,9816.00
2018-03-24T15:38:29.968Z,9796.00
2018-03-24T15:40:23.283Z,9736.00
2018-03-24T15:41:23.179Z,9628.00
2018-03-24T15:43:16.426Z,9220.00
2018-03-24T15:44:16.366Z,9172.00
2018-03-24T15:46:09.661Z,9076.00
2018-03-24T15:47:09.570Z,8828.00
2018-03-24T15:49:02.838Z,8360.00
2018-03-24T15:50:02.773Z,8508.00
2018-03-24T15:51:56.070Z,8740.00
2018-03-24T15:52:55.979Z,8828.00
2018-03-24T15:54:49.248Z,8900.00
2018-03-24T15:55:49.173Z,8848.00
2018-03-24T15:57:42.464Z,8600.00
2018-03-24T15:58:42.381Z,8572.00
2018-03-24T16:00:35.634Z,8516.00
2018-03-24T16:01:35.581Z,8260.00
2018-03-24T16:03:28.863Z,7992.00
2018-03-24T16:04:28.773Z,7832.00
2018-03-24T16:06:22.050Z,7788.00
2018-03-24T16:07:21.980Z,7536.00
2018-03-24T16:09:15.276Z,7400.00
2018-03-24T16:10:15.168Z,7272.00
2018-03-24T16:12:08.427Z,6932.00
2018-03-24T16:13:08.367Z,7108.00
2018-03-24T16:15:01.655Z,7088.00
2018-03-24T16:16:01.564Z,6908.00
2018-03-24T16:17:54.849Z,6596.00
2018-03-24T16:18:54.763Z,6492.00
2018-03-24T16:20:48.057Z,6400.00
2018-03-24T16:21:47.993Z,6344.00
2018-03-24T16:23:41.222Z,6160.00
2018-03-24T16:24:41.172Z,6068.00
2018-03-24T16:26:34.475Z,5952.00
2018-03-24T16:27:34.384Z,5868.00
2018-03-24T16:29:27.623Z,5744.00
2018-03-24T16:30:27.561Z,5684.00
2018-03-24T16:32:20.847Z,5532.00
2018-03-24T16:33:20.753Z,5468.00
2018-03-24T16:35:14.018Z,5328.00
2018-03-24T16:36:13.954Z,5260.00
2018-03-24T16:38:07.248Z,5108.00
2018-03-24T16:39:07.164Z,4992.00
2018-03-24T16:41:00.419Z,4796.00
2018-03-24T16:42:00.352Z,4704.00
2018-03-24T16:43:53.640Z,4520.00
2018-03-24T16:44:53.546Z,4424.00
2018-03-24T16:46:46.833Z,4248.00
2018-03-24T16:47:46.749Z,4140.00
2018-03-24T16:49:40.039Z,3944.00
2018-03-24T16:50:39.953Z,3844.00
2018-03-24T16:52:33.202Z,3668.00
2018-03-24T16:53:33.138Z,3576.00
2018-03-24T16:55:26.437Z,3412.00
2018-03-24T16:56:26.361Z,3320.00
2018-03-24T16:58:19.596Z,3148.00
2018-03-24T16:59:19.546Z,3060.00
2018-03-24T17:01:12.838Z,2888.00
2018-03-24T17:02:12.728Z,2796.00
2018-03-24T17:04:05.984Z,2640.00
2018-03-24T17:05:05.921Z,2556.00
2018-03-24T17:06:59.216Z,2404.00
2018-03-24T17:07:59.116Z,2324.00
2018-03-24T17:09:52.377Z,2180.00
2018-03-24T17:10:52.320Z,2108.00
2018-03-24T17:12:45.610Z,1988.00
2018-03-24T17:13:45.510Z,1924.00
2018-03-24T17:15:38.767Z,1796.00
2018-03-24T17:16:38.702Z,1732.00
2018-03-24T17:18:31.991Z,1604.00
2018-03-24T17:19:31.896Z,1532.00
2018-03-24T17:21:25.153Z,1396.00
2018-03-24T17:22:25.092Z,1324.00
2018-03-24T17:24:18.376Z,1188.00
2018-03-24T17:25:18.298Z,1116.00
2018-03-24T17:27:11.546Z,988.00
2018-03-24T17:28:11.480Z,928.00
2018-03-24T17:30:04.784Z,808.00
2018-03-24T17:31:04.677Z,752.00
2018-03-24T17:32:57.928Z,644.00
2018-03-24T17:33:57.864Z,596.00
2018-03-24T17:35:51.154Z,504.00
2018-03-24T17:36:51.061Z,464.00
2018-03-24T17:38:44.360Z,392.00
2018-03-24T17:39:44.257Z,356.00
2018-03-24T17:41:37.545Z,300.00
2018-03-24T17:42:37.447Z,272.00
2018-03-24T17:44:30.701Z,224.00